KHIO/HIO METAR and TAF weather

Enter ICAO airport designator
Station Type Date Time Source
KHIO METAR 2019/06/27 09:53 UTC NOAA

KHIO 270953Z AUTO 18004KT 10SM FEW049 BKN080 13/09 A2999 RMK AO2 SLP153 T01280089


Station Type Date Time Source
KHIO Decoded METAR 2019/06/27 09:53 UTC NOAA

PORTLAND-HILLSBORO AIRPORT, OR, United States (KHIO) 45-33N 122-57W 68M
Jun 27, 2019 - 05:53 AM EDT / 2019.06.27 0953 UTC
Wind: from the S (180 degrees) at 5 MPH (4 KT):0
Visibility: 10 mile(s):0
Sky conditions: mostly cloudy
Temperature: 55.0 F (12.8 C)
Dew Point: 48.0 F (8.9 C)
Relative Humidity: 77%
Pressure (altimeter): 29.99 in. Hg (1015 hPa)
ob: KHIO 270953Z AUTO 18004KT 10SM FEW049 BKN080 13/09 A2999 RMK AO2 SLP153 T01280089
cycle: 10

Station Type Date Time Source
KHIO TAF 2019/06/27 06:22 UTC NOAA

TAF KHIO 270520Z 2706/2806 VRB03KT P6SM VCSH OVC070
FM270800 VRB03KT P6SM SCT060 BKN120
FM271600 18010KT P6SM -SHRA BKN050 OVC080
FM272200 22008KT P6SM -SHRA OVC050
FM280300 21004KT P6SM VCSH BKN050

Example: see airport list